createdAt,value
2018-03-30T00:01:59.221Z,94256.05
2018-03-30T00:04:28.245Z,94252.63
2018-03-30T00:06:56.939Z,94256.08
2018-03-30T00:12:37.690Z,94258.69
2018-03-30T00:15:06.700Z,94250.92
2018-03-30T00:17:34.947Z,94244.19
2018-03-30T00:20:03.972Z,94238.78
2018-03-30T00:22:32.228Z,94228.23
2018-03-30T00:25:01.240Z,94229.09
2018-03-30T00:27:29.518Z,94225.19
2018-03-30T00:29:58.534Z,94215.67
2018-03-30T00:32:26.777Z,94221.55
2018-03-30T00:34:55.808Z,94227.73
2018-03-30T00:37:24.076Z,94228.88
2018-03-30T00:39:52.379Z,94228.10
2018-03-30T00:42:20.574Z,94220.24
2018-03-30T00:44:50.087Z,94220.08
2018-03-30T00:47:18.336Z,94211.67
2018-03-30T00:49:46.579Z,94207.03
2018-03-30T00:52:15.622Z,94199.75
2018-03-30T00:54:43.876Z,94203.50
2018-03-30T00:57:12.905Z,94208.50
2018-03-30T00:59:41.147Z,94203.50
2018-03-30T01:02:09.404Z,94210.02
2018-03-30T01:04:37.664Z,94212.72
2018-03-30T01:07:05.918Z,94218.88
2018-03-30T01:09:34.176Z,94209.45
2018-03-30T01:12:02.442Z,94203.24
2018-03-30T01:14:31.468Z,94194.61
2018-03-30T01:16:59.748Z,94186.42
2018-03-30T01:19:28.216Z,94180.17
2018-03-30T01:21:56.469Z,94172.97
2018-03-30T01:24:24.716Z,94181.04
2018-03-30T01:26:53.028Z,94189.09
2018-03-30T01:29:21.289Z,94185.81
2018-03-30T01:31:49.548Z,94189.44
2018-03-30T01:34:17.809Z,94183.73
2018-03-30T01:36:46.305Z,94175.36
2018-03-30T01:39:14.560Z,94162.33
2018-03-30T01:41:43.572Z,94165.13
2018-03-30T01:44:11.820Z,94164.13
2018-03-30T01:46:40.853Z,94154.77
2018-03-30T01:49:09.106Z,94152.84
2018-03-30T01:51:38.115Z,94158.68
2018-03-30T01:54:06.381Z,94152.59
2018-03-30T01:56:35.404Z,94154.33
2018-03-30T01:59:04.462Z,94152.52
2018-03-30T02:01:32.670Z,94150.41
2018-03-30T02:04:01.692Z,94151.58
2018-03-30T02:06:29.954Z,94153.91
2018-03-30T02:08:58.201Z,94147.95
2018-03-30T02:11:26.439Z,94152.91
2018-03-30T02:13:54.702Z,94140.53
2018-03-30T02:16:22.956Z,94142.64
2018-03-30T02:18:51.984Z,94136.22
2018-03-30T02:21:20.233Z,94127.18
2018-03-30T02:23:49.460Z,94121.46
2018-03-30T02:26:17.707Z,94120.99
2018-03-30T02:28:45.953Z,94116.86
2018-03-30T02:31:14.202Z,94114.20
2018-03-30T02:33:42.443Z,94110.41
2018-03-30T02:36:10.797Z,94105.39
2018-03-30T02:38:39.040Z,94097.89
2018-03-30T02:41:07.325Z,94104.83
2018-03-30T02:43:35.580Z,94109.03
2018-03-30T02:46:04.610Z,94107.00
2018-03-30T02:48:32.845Z,94109.31
2018-03-30T02:51:01.105Z,94112.30
2018-03-30T02:53:29.347Z,94102.66
2018-03-30T02:55:57.586Z,94090.30
2018-03-30T02:58:25.839Z,94088.58
2018-03-30T03:00:54.091Z,94089.69
2018-03-30T03:03:22.332Z,94095.86
2018-03-30T03:05:51.349Z,94093.14
2018-03-30T03:08:20.365Z,94083.44
2018-03-30T03:10:48.621Z,94089.42
2018-03-30T03:13:17.634Z,94091.52
2018-03-30T03:15:45.877Z,94090.62
2018-03-30T03:18:14.132Z,94088.59
2018-03-30T03:20:42.385Z,94083.70
2018-03-30T03:23:10.640Z,94081.95
2018-03-30T03:25:39.659Z,94077.92
2018-03-30T03:28:07.911Z,94080.31
2018-03-30T03:30:36.912Z,94074.18
2018-03-30T03:33:06.012Z,94073.91
2018-03-30T03:35:35.020Z,94075.61
2018-03-30T03:38:03.269Z,94076.48
2018-03-30T03:40:31.517Z,94073.96
2018-03-30T03:42:59.772Z,94073.83
2018-03-30T03:45:28.016Z,94066.70
2018-03-30T03:47:57.032Z,94072.67
2018-03-30T03:50:26.034Z,94072.01
2018-03-30T03:52:54.300Z,94077.11
2018-03-30T03:55:23.304Z,94072.55
2018-03-30T03:57:52.328Z,94074.72
2018-03-30T04:00:20.578Z,94081.42
2018-03-30T04:02:49.581Z,94078.84
2018-03-30T04:05:18.588Z,94073.29
2018-03-30T04:07:46.837Z,94073.09
2018-03-30T04:10:15.084Z,94061.39
2018-03-30T04:12:43.332Z,94060.58
2018-03-30T04:15:11.590Z,94051.95
2018-03-30T04:17:40.593Z,94058.28
2018-03-30T04:20:09.612Z,94058.00
2018-03-30T04:22:37.865Z,94057.72
2018-03-30T04:25:06.876Z,94047.52
2018-03-30T04:27:35.120Z,94046.98
2018-03-30T04:30:03.372Z,94049.66
2018-03-30T04:32:31.623Z,94052.12
2018-03-30T04:34:59.866Z,94042.09
2018-03-30T04:37:28.126Z,94037.81
2018-03-30T04:39:56.364Z,94030.66
2018-03-30T04:42:24.608Z,94040.98
2018-03-30T04:44:52.872Z,94045.73
2018-03-30T04:47:21.116Z,94039.42
2018-03-30T04:49:49.358Z,94047.65
2018-03-30T04:52:18.386Z,94042.67
2018-03-30T04:54:46.641Z,94041.79
2018-03-30T04:57:15.645Z,94039.29
2018-03-30T04:59:44.668Z,94043.52
2018-03-30T05:02:12.902Z,94035.13
2018-03-30T05:04:41.136Z,94031.63
2018-03-30T05:07:09.389Z,94035.49
2018-03-30T05:09:37.664Z,94037.00
2018-03-30T05:12:06.673Z,94030.47
2018-03-30T05:14:34.948Z,94030.27
2018-03-30T05:17:03.960Z,94030.93
2018-03-30T05:19:32.195Z,94022.96
2018-03-30T05:22:00.496Z,94032.92
2018-03-30T05:24:28.687Z,94031.44
2018-03-30T05:26:56.943Z,94027.03
2018-03-30T05:29:25.397Z,94030.21
2018-03-30T05:31:53.605Z,94028.77
2018-03-30T05:34:22.628Z,94031.30
2018-03-30T05:36:50.892Z,94033.50
2018-03-30T05:39:19.900Z,94029.55
2018-03-30T05:41:48.153Z,94029.56
2018-03-30T05:44:17.309Z,94027.83
2018-03-30T05:46:45.563Z,94031.26
2018-03-30T05:49:14.569Z,94030.95
2018-03-30T05:51:42.836Z,94023.50
2018-03-30T05:54:11.850Z,94009.35
2018-03-30T05:56:40.106Z,94011.09
2018-03-30T05:59:09.133Z,94015.15
2018-03-30T06:01:37.363Z,93999.98
2018-03-30T06:04:05.613Z,94000.26
2018-03-30T06:06:33.852Z,93993.89
2018-03-30T06:09:02.891Z,93996.40
2018-03-30T06:11:31.141Z,93994.09
2018-03-30T06:13:59.388Z,93996.53
2018-03-30T06:16:27.642Z,93995.11
2018-03-30T06:18:55.882Z,93995.73
2018-03-30T06:21:24.136Z,93988.55
2018-03-30T06:23:53.160Z,93987.42
2018-03-30T06:26:21.400Z,93980.92
2018-03-30T06:28:49.644Z,93971.48
2018-03-30T06:31:17.907Z,93973.78
2018-03-30T06:33:46.160Z,93970.49
2018-03-30T06:36:15.208Z,93972.77
2018-03-30T06:38:43.437Z,93968.82
2018-03-30T06:41:12.446Z,93962.70
2018-03-30T06:43:41.451Z,93962.09
2018-03-30T06:46:09.725Z,93939.78
2018-03-30T06:48:38.728Z,93939.94
2018-03-30T06:51:06.967Z,93948.36
2018-03-30T06:53:35.235Z,93943.70
2018-03-30T06:56:03.476Z,93933.69
2018-03-30T06:58:31.732Z,93928.23
2018-03-30T07:01:00.755Z,93931.51
2018-03-30T07:03:28.996Z,93937.52
2018-03-30T07:05:58.012Z,93942.77
2018-03-30T07:08:27.027Z,93941.32
2018-03-30T07:10:55.277Z,93941.16
2018-03-30T07:13:24.301Z,93941.84
2018-03-30T07:15:52.540Z,93935.32
2018-03-30T07:18:20.792Z,93936.63
2018-03-30T07:20:49.040Z,93944.97
2018-03-30T07:23:17.327Z,93941.34
2018-03-30T07:25:45.564Z,93938.25
2018-03-30T07:28:14.076Z,93927.14
2018-03-30T07:30:43.079Z,93931.00
2018-03-30T07:33:11.324Z,93927.41
2018-03-30T07:35:39.576Z,93929.34
2018-03-30T07:38:07.812Z,93927.52
2018-03-30T07:40:36.828Z,93934.30
2018-03-30T07:43:05.074Z,93921.95
2018-03-30T07:45:34.304Z,93914.09
2018-03-30T07:48:02.560Z,93902.98
2018-03-30T07:50:31.575Z,93906.88
2018-03-30T07:52:59.848Z,93900.56
2018-03-30T07:55:28.861Z,93900.28
2018-03-30T07:57:57.120Z,93895.42
2018-03-30T08:00:26.125Z,93889.33
2018-03-30T08:02:55.143Z,93884.53
2018-03-30T08:05:23.379Z,93880.04
2018-03-30T08:07:51.619Z,93878.61
2018-03-30T08:10:19.872Z,93872.45
2018-03-30T08:12:48.115Z,93872.70
2018-03-30T08:15:16.360Z,93866.75
2018-03-30T08:17:45.851Z,93863.28
2018-03-30T08:20:14.097Z,93871.13
2018-03-30T08:22:43.116Z,93871.22
2018-03-30T08:25:11.401Z,93871.50
2018-03-30T08:27:39.652Z,93863.24
2018-03-30T08:30:07.925Z,93864.26
2018-03-30T08:32:36.221Z,93867.31
2018-03-30T08:35:05.253Z,93861.37
2018-03-30T08:37:33.506Z,93860.41
2018-03-30T08:40:02.517Z,93858.44
2018-03-30T08:42:30.769Z,93863.00
2018-03-30T08:44:59.779Z,93861.58
2018-03-30T08:47:28.803Z,93859.42
2018-03-30T08:49:57.046Z,93866.17
2018-03-30T08:52:26.052Z,93864.59
2018-03-30T08:54:55.076Z,93866.26
2018-03-30T08:57:23.327Z,93862.08
2018-03-30T08:59:52.355Z,93857.77
2018-03-30T09:02:21.422Z,93858.91
2018-03-30T09:04:50.441Z,93857.50
2018-03-30T09:07:18.680Z,93856.81
2018-03-30T09:09:46.920Z,93848.69
2018-03-30T09:12:15.172Z,93855.47
2018-03-30T09:14:43.425Z,93851.05
2018-03-30T09:17:11.680Z,93856.52
2018-03-30T09:19:39.927Z,93849.55
2018-03-30T09:22:08.180Z,93850.62
2018-03-30T09:24:37.198Z,93851.80
2018-03-30T09:27:05.444Z,93850.98
2018-03-30T09:29:33.700Z,93842.19
2018-03-30T09:32:01.955Z,93837.86
2018-03-30T09:34:30.197Z,93834.88
2018-03-30T09:36:59.231Z,93838.38
2018-03-30T09:39:27.467Z,93844.38
2018-03-30T09:41:56.499Z,93842.48
2018-03-30T09:44:25.708Z,93837.02
2018-03-30T09:46:53.959Z,93828.69
2018-03-30T09:49:23.020Z,93830.01
2018-03-30T09:51:51.285Z,93823.30
2018-03-30T09:54:20.985Z,93822.95
2018-03-30T09:56:49.253Z,93819.48
2018-03-30T09:59:17.504Z,93817.14
2018-03-30T10:01:53.220Z,93809.69
2018-03-30T10:04:23.417Z,93806.91
2018-03-30T10:06:52.416Z,93794.29
2018-03-30T10:09:20.682Z,93800.28
2018-03-30T10:11:48.966Z,93795.08
2018-03-30T10:14:17.190Z,93785.22
2018-03-30T10:16:45.440Z,93786.05
2018-03-30T10:19:13.706Z,93782.96
2018-03-30T10:21:41.963Z,93787.66
2018-03-30T10:24:10.989Z,93775.83
2018-03-30T10:26:39.247Z,93769.15
2018-03-30T10:29:08.268Z,93759.62
2018-03-30T10:31:36.528Z,93750.82
2018-03-30T10:34:04.796Z,93739.44
2018-03-30T10:36:33.811Z,93741.53
2018-03-30T10:39:02.074Z,93736.41
2018-03-30T10:41:31.108Z,93738.52
2018-03-30T10:43:59.360Z,93733.75
2018-03-30T10:46:27.665Z,93736.50
2018-03-30T10:48:55.963Z,93734.20
2018-03-30T10:51:24.235Z,93729.63
2018-03-30T10:53:52.497Z,93734.04
2018-03-30T10:56:20.770Z,93723.64
2018-03-30T10:58:49.079Z,93717.52
2018-03-30T11:01:17.334Z,93704.52
2018-03-30T11:03:45.584Z,93706.77
2018-03-30T11:06:13.851Z,93704.55
2018-03-30T11:08:42.122Z,93702.59
2018-03-30T11:11:11.609Z,93692.48
2018-03-30T11:13:39.868Z,93697.17
2018-03-30T11:16:08.123Z,93683.83
2018-03-30T11:18:37.133Z,93681.44
2018-03-30T11:21:06.160Z,93672.13
2018-03-30T11:23:34.408Z,93665.51
2018-03-30T11:26:02.737Z,93664.77
2018-03-30T11:28:31.726Z,93650.67
2018-03-30T11:30:59.990Z,93653.23
2018-03-30T11:33:28.223Z,93651.94
2018-03-30T11:35:56.472Z,93639.57
2018-03-30T11:38:24.734Z,93639.31
2018-03-30T11:40:52.987Z,93633.72
2018-03-30T11:43:22.009Z,93630.23
2018-03-30T11:45:50.273Z,93626.88
2018-03-30T11:48:18.523Z,93633.48
2018-03-30T11:50:46.796Z,93634.45
2018-03-30T11:53:15.054Z,93621.51
2018-03-30T11:55:43.305Z,93602.71
2018-03-30T11:58:11.570Z,93594.30
2018-03-30T12:00:40.668Z,93594.30
2018-03-30T12:03:09.688Z,93604.88
2018-03-30T12:05:37.960Z,93581.39
2018-03-30T12:08:06.355Z,93581.96
2018-03-30T12:10:34.608Z,93567.16
2018-03-30T12:13:02.864Z,93571.77
2018-03-30T12:15:31.138Z,93561.59
2018-03-30T12:17:59.409Z,93568.27
2018-03-30T12:20:27.656Z,93550.53
2018-03-30T12:22:55.912Z,93555.91
2018-03-30T12:25:24.182Z,93550.69
2018-03-30T12:27:53.209Z,93539.26
2018-03-30T12:30:21.467Z,93544.56
2018-03-30T12:32:50.483Z,93546.02
2018-03-30T12:35:18.747Z,93546.45
2018-03-30T12:37:47.781Z,93532.38
2018-03-30T12:40:16.028Z,93527.30
2018-03-30T12:42:44.296Z,93520.08
2018-03-30T12:45:13.324Z,93524.34
2018-03-30T12:47:41.599Z,93508.36
2018-03-30T12:50:09.847Z,93503.97
2018-03-30T12:52:38.862Z,93495.78
2018-03-30T12:55:07.875Z,93501.11
2018-03-30T12:57:36.160Z,93493.40
2018-03-30T13:00:04.392Z,93476.94
2018-03-30T13:02:32.659Z,93467.21
2018-03-30T13:05:00.913Z,93468.80
2018-03-30T13:07:29.170Z,93459.64
2018-03-30T13:09:57.435Z,93449.77
2018-03-30T13:12:26.464Z,93450.80
2018-03-30T13:14:54.714Z,93451.94
2018-03-30T13:17:23.749Z,93449.61
2018-03-30T13:19:51.993Z,93456.97
2018-03-30T13:22:20.257Z,93454.67
2018-03-30T13:24:49.296Z,93447.93
2018-03-30T13:27:17.544Z,93430.01
2018-03-30T13:29:46.561Z,93427.14
2018-03-30T13:32:14.828Z,93429.16
2018-03-30T13:34:43.850Z,93421.67
2018-03-30T13:37:12.093Z,93409.44
2018-03-30T13:39:41.124Z,93401.94
2018-03-30T13:42:09.376Z,93406.73
2018-03-30T13:44:38.404Z,93395.05
2018-03-30T13:47:06.690Z,93383.80
2018-03-30T13:49:35.679Z,93384.64
2018-03-30T13:55:25.834Z,93393.89
2018-03-30T13:57:58.780Z,93371.62
2018-03-30T14:00:39.212Z,93369.81
2018-03-30T14:03:18.680Z,93362.18
2018-03-30T14:06:13.254Z,93357.01
2018-03-30T14:08:52.157Z,93349.78
2018-03-30T14:11:51.572Z,93346.04
2018-03-30T14:14:19.832Z,93340.58
2018-03-30T14:16:51.365Z,93332.79
2018-03-30T14:19:22.928Z,93320.78
2018-03-30T14:22:06.480Z,93314.76
2018-03-30T14:24:42.592Z,93312.88
2018-03-30T14:27:15.221Z,93303.74
2018-03-30T14:29:47.244Z,93296.59
2018-03-30T14:32:21.697Z,93295.34
2018-03-30T14:34:59.933Z,93292.84
2018-03-30T14:37:32.552Z,93289.36
2018-03-30T14:40:10.936Z,93283.59
2018-03-30T14:42:41.841Z,93289.72
2018-03-30T14:45:11.950Z,93284.95
2018-03-30T14:47:43.374Z,93277.45
2018-03-30T14:53:30.697Z,93269.47
2018-03-30T14:59:13.613Z,93271.72
2018-03-30T15:01:54.693Z,93253.87
2018-03-30T15:04:40.556Z,93252.34
2018-03-30T15:07:29.712Z,93267.03
2018-03-30T15:10:07.996Z,93252.14
2018-03-30T15:12:39.592Z,93248.87
2018-03-30T15:21:38.376Z,93226.73
2018-03-30T15:24:22.402Z,93229.59
2018-03-30T15:26:52.135Z,93226.52
2018-03-30T15:29:25.755Z,93226.34
2018-03-30T15:32:01.031Z,93223.77
2018-03-30T15:34:32.636Z,93213.58
2018-03-30T15:37:10.103Z,93221.79
2018-03-30T15:39:39.128Z,93212.63
2018-03-30T15:42:07.396Z,93212.60
2018-03-30T15:44:37.802Z,93203.30
2018-03-30T15:47:10.536Z,93204.35
2018-03-30T15:49:39.543Z,93207.51
2018-03-30T15:52:11.528Z,93207.66
2018-03-30T15:54:39.779Z,93199.48
2018-03-30T15:57:08.064Z,93184.42
2018-03-30T15:59:36.315Z,93178.77
2018-03-30T16:02:04.607Z,93179.91
2018-03-30T16:04:32.920Z,93166.49
2018-03-30T16:07:01.206Z,93171.08
2018-03-30T16:09:36.825Z,93167.93
2018-03-30T16:12:05.198Z,93164.52
2018-03-30T16:14:33.512Z,93159.47
2018-03-30T16:17:01.799Z,93156.87
2018-03-30T16:19:29.268Z,93157.88
2018-03-30T16:21:56.769Z,93150.09
2018-03-30T16:24:25.030Z,93151.42
2018-03-30T16:26:52.501Z,93146.94
2018-03-30T16:29:20.728Z,93147.30
2018-03-30T16:31:48.232Z,93140.82
2018-03-30T16:34:15.721Z,93138.77
2018-03-30T16:36:43.984Z,93134.89
2018-03-30T16:39:11.505Z,93136.73
2018-03-30T16:41:38.970Z,93137.17
2018-03-30T16:44:06.436Z,93130.91
2018-03-30T16:46:33.900Z,93135.28
2018-03-30T16:49:01.427Z,93132.41
2018-03-30T16:51:28.940Z,93128.89
2018-03-30T16:53:56.407Z,93114.33
2018-03-30T16:56:23.879Z,93127.16
2018-03-30T16:58:51.386Z,93129.58
2018-03-30T17:01:18.869Z,93131.98
2018-03-30T17:03:46.357Z,93134.54
2018-03-30T17:06:13.875Z,93145.88
2018-03-30T17:08:41.381Z,93143.67
2018-03-30T17:11:08.892Z,93139.22
2018-03-30T17:13:36.429Z,93137.61
2018-03-30T17:16:03.923Z,93140.21
2018-03-30T17:18:31.444Z,93134.78
2018-03-30T17:20:59.125Z,93139.30
2018-03-30T17:23:27.450Z,93135.25
2018-03-30T17:25:54.973Z,93131.41
2018-03-30T17:28:23.227Z,93132.60
2018-03-30T17:30:50.752Z,93136.29
2018-03-30T17:33:18.266Z,93135.59
2018-03-30T17:35:45.763Z,93135.99
2018-03-30T17:38:13.212Z,93140.32
2018-03-30T17:40:42.494Z,93127.58
2018-03-30T17:43:09.952Z,93135.38
2018-03-30T17:45:37.395Z,93134.87
2018-03-30T17:48:04.860Z,93134.98
2018-03-30T17:50:32.312Z,93132.05
2018-03-30T17:52:59.791Z,93138.21
2018-03-30T17:55:27.284Z,93138.56
2018-03-30T17:57:54.720Z,93140.66
2018-03-30T18:00:22.163Z,93143.77
2018-03-30T18:02:49.611Z,93141.33
2018-03-30T18:05:17.076Z,93144.26
2018-03-30T18:07:44.519Z,93149.40
2018-03-30T18:10:11.975Z,93144.97
2018-03-30T18:12:39.457Z,93143.80
2018-03-30T18:15:06.915Z,93141.69
2018-03-30T18:17:34.576Z,93155.28
2018-03-30T18:20:02.031Z,93150.82
2018-03-30T18:22:29.506Z,93152.95
2018-03-30T18:24:56.948Z,93155.67
2018-03-30T18:27:24.438Z,93155.68
2018-03-30T18:29:51.888Z,93158.08
2018-03-30T18:32:19.340Z,93146.73
2018-03-30T18:34:46.794Z,93144.16
2018-03-30T18:37:14.239Z,93147.73
2018-03-30T18:39:42.468Z,93147.48
2018-03-30T18:42:09.916Z,93142.55
2018-03-30T18:44:38.309Z,93141.33
2018-03-30T18:47:05.761Z,93147.09
2018-03-30T18:49:33.237Z,93146.19
2018-03-30T18:52:00.694Z,93142.09
2018-03-30T18:54:28.142Z,93144.70
2018-03-30T18:56:55.609Z,93144.60
2018-03-30T18:59:23.042Z,93144.09
2018-03-30T19:01:50.509Z,93143.22
2018-03-30T19:04:17.960Z,93149.34
2018-03-30T19:06:45.428Z,93152.80
2018-03-30T19:09:13.644Z,93149.24
2018-03-30T19:11:42.138Z,93143.16
2018-03-30T19:14:09.596Z,93141.42
2018-03-30T19:16:37.076Z,93133.84
2018-03-30T19:19:04.520Z,93138.22
2018-03-30T19:21:31.988Z,93137.77
2018-03-30T19:23:59.465Z,93137.69
2018-03-30T19:26:26.927Z,93149.80
2018-03-30T19:28:54.388Z,93152.08
2018-03-30T19:31:21.831Z,93153.02
2018-03-30T19:33:49.296Z,93157.58
2018-03-30T19:36:16.743Z,93154.68
2018-03-30T19:38:45.053Z,93159.17
2018-03-30T19:41:12.504Z,93172.21
2018-03-30T19:43:39.962Z,93177.11
2018-03-30T19:46:07.424Z,93179.93
2018-03-30T19:48:34.865Z,93169.45
2018-03-30T19:51:02.325Z,93166.45
2018-03-30T19:53:29.797Z,93178.71
2018-03-30T19:55:57.240Z,93180.50
2018-03-30T19:58:24.703Z,93191.55
2018-03-30T20:00:52.149Z,93209.73
2018-03-30T20:03:19.632Z,93206.23
2018-03-30T20:05:47.088Z,93206.28
2018-03-30T20:08:14.543Z,93214.66
2018-03-30T20:10:42.011Z,93222.94
2018-03-30T20:13:09.475Z,93228.54
2018-03-30T20:15:36.986Z,93230.02
2018-03-30T20:18:04.391Z,93228.83
2018-03-30T20:20:31.840Z,93220.20
2018-03-30T20:23:00.081Z,93214.62
2018-03-30T20:25:27.524Z,93191.52
2018-03-30T20:27:54.968Z,93204.09
2018-03-30T20:30:22.428Z,93217.80
2018-03-30T20:32:49.880Z,93215.30
2018-03-30T20:35:17.346Z,93222.83
2018-03-30T20:37:44.817Z,93227.41
2018-03-30T20:40:12.264Z,93231.11
2018-03-30T20:42:39.736Z,93233.45
2018-03-30T20:45:07.177Z,93235.69
2018-03-30T20:47:34.628Z,93237.85
2018-03-30T20:50:02.844Z,93236.62
2018-03-30T20:52:30.297Z,93241.77
2018-03-30T20:54:57.752Z,93247.17
2018-03-30T20:57:25.201Z,93256.92
2018-03-30T20:59:53.432Z,93254.12
2018-03-30T21:02:20.880Z,93255.36
2018-03-30T21:04:48.327Z,93255.77
2018-03-30T21:07:15.784Z,93254.66
2018-03-30T21:09:43.251Z,93263.52
2018-03-30T21:12:10.709Z,93262.30
2018-03-30T21:14:38.176Z,93269.52
2018-03-30T21:17:05.640Z,93275.72
2018-03-30T21:19:33.087Z,93284.26
2018-03-30T21:22:00.565Z,93288.89
2018-03-30T21:24:28.013Z,93297.84
2018-03-30T21:26:55.460Z,93292.04
2018-03-30T21:29:23.684Z,93299.28
2018-03-30T21:31:51.146Z,93303.58
2018-03-30T21:34:18.588Z,93309.67
2018-03-30T21:36:46.056Z,93316.47
2018-03-30T21:39:14.593Z,93325.92
2018-03-30T21:41:42.048Z,93339.56
2018-03-30T21:44:09.495Z,93347.80
2018-03-30T21:46:36.951Z,93357.55
2018-03-30T21:49:04.408Z,93365.84
2018-03-30T21:51:31.875Z,93371.03
2018-03-30T21:53:59.332Z,93360.58
2018-03-30T21:56:26.775Z,93357.66
2018-03-30T21:58:54.227Z,93355.84
2018-03-30T22:01:21.690Z,93358.59
2018-03-30T22:03:49.144Z,93361.90
2018-03-30T22:06:16.604Z,93363.17
2018-03-30T22:08:44.329Z,93355.73
2018-03-30T22:11:11.775Z,93363.02
2018-03-30T22:13:39.223Z,93357.44
2018-03-30T22:16:06.685Z,93356.41
2018-03-30T22:18:34.152Z,93365.42
2018-03-30T22:21:01.604Z,93371.95
2018-03-30T22:23:29.072Z,93376.69
2018-03-30T22:25:56.519Z,93376.67
2018-03-30T22:28:23.960Z,93381.64
2018-03-30T22:30:51.428Z,93385.78
2018-03-30T22:33:18.879Z,93385.79
2018-03-30T22:35:47.118Z,93391.13
2018-03-30T22:38:14.562Z,93387.84
2018-03-30T22:40:42.016Z,93394.52
2018-03-30T22:43:09.482Z,93395.42
2018-03-30T22:45:36.929Z,93398.64
2018-03-30T22:48:04.387Z,93399.31
2018-03-30T22:50:31.849Z,93394.91
2018-03-30T22:52:59.287Z,93390.90
2018-03-30T22:55:27.524Z,93389.02
2018-03-30T22:57:54.972Z,93381.72
2018-03-30T23:00:22.439Z,93380.83
2018-03-30T23:02:49.901Z,93391.67
2018-03-30T23:05:17.343Z,93404.73
2018-03-30T23:07:44.803Z,93398.49
2018-03-30T23:10:12.266Z,93399.89
2018-03-30T23:12:39.732Z,93382.69
2018-03-30T23:15:07.180Z,93391.69
2018-03-30T23:17:34.642Z,93377.91
2018-03-30T23:20:02.087Z,93371.20
2018-03-30T23:22:30.320Z,93377.33
2018-03-30T23:24:57.768Z,93375.52
2018-03-30T23:27:25.213Z,93380.88
2018-03-30T23:29:52.672Z,93382.94
2018-03-30T23:32:20.124Z,93375.05
2018-03-30T23:34:47.594Z,93370.59
2018-03-30T23:37:15.051Z,93365.32
2018-03-30T23:39:42.500Z,93372.88
2018-03-30T23:42:10.710Z,93377.27
2018-03-30T23:44:38.165Z,93381.36
2018-03-30T23:47:05.625Z,93384.82
2018-03-30T23:49:33.071Z,93381.45
2018-03-30T23:52:01.292Z,93374.80
2018-03-30T23:54:28.763Z,93365.13
2018-03-30T23:56:56.209Z,93377.00
2018-03-30T23:59:23.670Z,93375.57
